PWSweather.com
Personal Weather Stations
Station Observations
KVAGLENALL
West Henrico, Glen Allen, VA 23060-6503

West HenricoGlen Allen, VA 23060-6503

Lat: 37.6554, Lon: -77.5693

Elevation: 273

Station Type: Davis Vantage Pro II

www.glenallenweather.com

High Low Average
Temperature 44.4°F6.9°C 41.3°F5.2°C 42.7°F5.9°C
Dew Point 43.6°F6.4°C 35.8°F2.1°C 39.8°F4.3°C
Winds 6.0 mph 9.7 kmh Calm Calm 2.0 mph E3.2 kmh E
Wind Gusts 7.1 mph11.4 kmh -- 4.0 mph6.4 kmh
Humidity 97% 79% 89%
Pressure 30.19 in1022.4 mb 29.89 in1012.2 mb -
Precipitation 0.00 in0.0 mm - -
Hour Temp Dew Point Humidity Winds Wind Gusts Pressure Precip Precip Rate Daily Precip Total
12:00 AM 42.3°F5.7°C 37.2°F2.9°C 82% 1.0 mph E1.6 kmh E 2.0 mph3.2 kmh 30.12 in1020.0 mb 0.00 in0.0 mm 0.00 in0.0 mm 0.00 in0.0 mm
12:30 AM 41.4°F5.2°C 36.6°F2.6°C 83% 1.0 mph ENE1.6 kmh ENE 1.0 mph1.6 kmh 30.12 in1020.0 mb 0.00 in0.0 mm 0.00 in0.0 mm 0.00 in0.0 mm
01:00 AM 41.3°F5.2°C 36.5°F2.5°C 83% 2.0 mph NE3.2 kmh NE 3.0 mph4.8 kmh 30.12 in1020.0 mb 0.00 in0.0 mm 0.00 in0.0 mm 0.00 in0.0 mm
01:30 AM 41.6°F5.3°C 36.5°F2.5°C 82% 1.0 mph ENE1.6 kmh ENE 2.0 mph3.2 kmh 30.13 in1020.3 mb 0.00 in0.0 mm 0.00 in0.0 mm 0.00 in0.0 mm
02:00 AM 41.9°F5.5°C 36.5°F2.5°C 81% 2.0 mph NE3.2 kmh NE 3.0 mph4.8 kmh 30.13 in1020.3 mb 0.00 in0.0 mm 0.00 in0.0 mm 0.00 in0.0 mm
02:30 AM 41.7°F5.4°C 36.6°F2.6°C 82% 3.0 mph NE4.8 kmh NE 5.1 mph8.2 kmh 30.15 in1021.0 mb 0.00 in0.0 mm 0.00 in0.0 mm 0.00 in0.0 mm
03:00 AM 41.5°F5.3°C 36.7°F2.6°C 83% 2.0 mph NNE3.2 kmh NNE 5.1 mph8.2 kmh 30.15 in1021.0 mb 0.00 in0.0 mm 0.00 in0.0 mm 0.00 in0.0 mm
03:30 AM 41.6°F5.3°C 36.5°F2.5°C 82% 3.0 mph NE4.8 kmh NE 4.0 mph6.4 kmh 30.15 in1021.0 mb 0.00 in0.0 mm 0.00 in0.0 mm 0.00 in0.0 mm
04:00 AM 41.5°F5.3°C 36.4°F2.4°C 82% 2.0 mph NE3.2 kmh NE 4.0 mph6.4 kmh 30.14 in1020.7 mb 0.00 in0.0 mm 0.00 in0.0 mm 0.00 in0.0 mm
04:30 AM 41.5°F5.3°C 36.1°F2.3°C 81% 1.0 mph NE1.6 kmh NE 3.0 mph4.8 kmh 30.15 in1021.0 mb 0.00 in0.0 mm 0.00 in0.0 mm 0.00 in0.0 mm
05:00 AM 41.6°F5.3°C 35.9°F2.2°C 80% 1.0 mph ENE1.6 kmh ENE 3.0 mph4.8 kmh 30.16 in1021.3 mb 0.00 in0.0 mm 0.00 in0.0 mm 0.00 in0.0 mm
05:30 AM 41.8°F5.4°C 35.8°F2.1°C 79% 3.0 mph NNE4.8 kmh NNE 5.1 mph8.2 kmh 30.16 in1021.3 mb 0.00 in0.0 mm 0.00 in0.0 mm 0.00 in0.0 mm
05:45 AM 41.8°F5.4°C 35.8°F2.1°C 79% 5.0 mph ENE8.0 kmh ENE 5.1 mph8.2 kmh 30.16 in1021.3 mb 0.00 in0.0 mm 0.00 in0.0 mm 0.00 in0.0 mm
06:00 AM 41.8°F5.4°C 35.8°F2.1°C 79% 4.0 mph NE6.4 kmh NE 5.1 mph8.2 kmh 30.16 in1021.3 mb 0.00 in0.0 mm 0.00 in0.0 mm 0.00 in0.0 mm
06:15 AM 41.9°F5.5°C 36.2°F2.3°C 80% 2.0 mph NE3.2 kmh NE 4.0 mph6.4 kmh 30.16 in1021.3 mb 0.00 in0.0 mm 0.00 in0.0 mm 0.00 in0.0 mm
06:30 AM 42.0°F5.6°C 36.3°F2.4°C 80% 2.0 mph NE3.2 kmh NE 3.0 mph4.8 kmh 30.15 in1021.0 mb 0.00 in0.0 mm 0.00 in0.0 mm 0.00 in0.0 mm
06:45 AM 42.1°F5.6°C 36.4°F2.4°C 80% Calm Calm 3.0 mph4.8 kmh 30.16 in1021.3 mb 0.00 in0.0 mm 0.00 in0.0 mm 0.00 in0.0 mm
07:00 AM 42.2°F5.7°C 36.5°F2.5°C 80% 3.0 mph N4.8 kmh N 3.0 mph4.8 kmh 30.17 in1021.7 mb 0.00 in0.0 mm 0.00 in0.0 mm 0.00 in0.0 mm
07:45 AM 42.3°F5.7°C 36.9°F2.7°C 81% 3.0 mph NE4.8 kmh NE 5.1 mph8.2 kmh 30.17 in1021.7 mb 0.00 in0.0 mm 0.00 in0.0 mm 0.00 in0.0 mm
08:00 AM 42.4°F5.8°C 37.3°F2.9°C 82% 4.0 mph E6.4 kmh E 4.0 mph6.4 kmh 30.17 in1021.7 mb 0.00 in0.0 mm 0.00 in0.0 mm 0.00 in0.0 mm
08:15 AM 42.6°F5.9°C 37.5°F3.1°C 82% Calm Calm 3.0 mph4.8 kmh 30.17 in1021.7 mb 0.00 in0.0 mm 0.00 in0.0 mm 0.00 in0.0 mm
08:30 AM 42.6°F5.9°C 38.1°F3.4°C 84% 3.0 mph E4.8 kmh E 3.0 mph4.8 kmh 30.18 in1022.0 mb 0.00 in0.0 mm 0.00 in0.0 mm 0.00 in0.0 mm
08:45 AM 42.5°F5.8°C 38.3°F3.5°C 85% 5.0 mph NE8.0 kmh NE 5.1 mph8.2 kmh 30.18 in1022.0 mb 0.00 in0.0 mm 0.00 in0.0 mm 0.00 in0.0 mm
09:00 AM 42.6°F5.9°C 38.7°F3.7°C 86% 1.0 mph NE1.6 kmh NE 4.0 mph6.4 kmh 30.18 in1022.0 mb 0.00 in0.0 mm 0.00 in0.0 mm 0.00 in0.0 mm
09:15 AM 42.4°F5.8°C 38.8°F3.8°C 87% 1.0 mph ESE1.6 kmh ESE 2.0 mph3.2 kmh 30.19 in1022.4 mb 0.00 in0.0 mm 0.00 in0.0 mm 0.00 in0.0 mm
09:30 AM 42.4°F5.8°C 39.4°F4.1°C 89% 3.0 mph ESE4.8 kmh ESE 7.1 mph11.4 kmh 30.17 in1021.7 mb 0.00 in0.0 mm 0.00 in0.0 mm 0.00 in0.0 mm
09:45 AM 42.1°F5.6°C 39.7°F4.3°C 91% 1.0 mph E1.6 kmh E 7.1 mph11.4 kmh 30.17 in1021.7 mb 0.00 in0.0 mm 0.00 in0.0 mm 0.00 in0.0 mm
10:00 AM 42.0°F5.6°C 39.6°F4.2°C 91% 2.0 mph ESE3.2 kmh ESE 4.0 mph6.4 kmh 30.17 in1021.7 mb 0.00 in0.0 mm 0.00 in0.0 mm 0.00 in0.0 mm
10:15 AM 42.0°F5.6°C 39.6°F4.2°C 91% 2.0 mph E3.2 kmh E 4.0 mph6.4 kmh 30.18 in1022.0 mb 0.00 in0.0 mm 0.00 in0.0 mm 0.00 in0.0 mm
10:30 AM 42.0°F5.6°C 39.9°F4.4°C 92% 1.0 mph N1.6 kmh N 4.0 mph6.4 kmh 30.15 in1021.0 mb 0.00 in0.0 mm 0.00 in0.0 mm 0.00 in0.0 mm
10:45 AM 41.9°F5.5°C 39.8°F4.3°C 92% 3.0 mph ESE4.8 kmh ESE 4.0 mph6.4 kmh 30.17 in1021.7 mb 0.00 in0.0 mm 0.00 in0.0 mm 0.00 in0.0 mm
11:00 AM 42.0°F5.6°C 39.9°F4.4°C 92% Calm Calm 1.0 mph1.6 kmh 30.17 in1021.7 mb 0.01 in0.3 mm 0.01 in0.3 mm 0.01 in0.3 mm
11:15 AM 42.2°F5.7°C 40.1°F4.5°C 92% 3.0 mph N4.8 kmh N 4.0 mph6.4 kmh 30.15 in1021.0 mb 0.01 in0.3 mm 0.00 in0.0 mm 0.01 in0.3 mm
11:30 AM 42.0°F5.6°C 39.9°F4.4°C 92% 1.0 mph E1.6 kmh E 5.1 mph8.2 kmh 30.15 in1021.0 mb 0.01 in0.3 mm 0.00 in0.0 mm 0.01 in0.3 mm
11:45 AM 42.3°F5.7°C 40.2°F4.6°C 92% Calm Calm 3.0 mph4.8 kmh 30.15 in1021.0 mb 0.01 in0.3 mm 0.00 in0.0 mm 0.01 in0.3 mm
12:00 PM 42.6°F5.9°C 40.5°F4.7°C 92% Calm Calm 1.0 mph1.6 kmh 30.15 in1021.0 mb 0.01 in0.3 mm 0.00 in0.0 mm 0.01 in0.3 mm
12:15 PM 42.7°F5.9°C 40.6°F4.8°C 92% 2.0 mph ENE3.2 kmh ENE 3.0 mph4.8 kmh 30.15 in1021.0 mb 0.00 in0.0 mm 0.00 in0.0 mm 0.01 in0.3 mm
12:30 PM 42.9°F6.1°C 40.5°F4.7°C 91% 1.0 mph ENE1.6 kmh ENE 2.0 mph3.2 kmh 30.14 in1020.7 mb 0.00 in0.0 mm 0.00 in0.0 mm 0.01 in0.3 mm
12:45 PM 43.1°F6.2°C 40.7°F4.8°C 91% 3.0 mph ENE4.8 kmh ENE 3.0 mph4.8 kmh 30.13 in1020.3 mb 0.00 in0.0 mm 0.00 in0.0 mm 0.01 in0.3 mm
01:00 PM 43.4°F6.3°C 41.0°F5.0°C 91% 3.0 mph ENE4.8 kmh ENE 3.0 mph4.8 kmh 30.12 in1020.0 mb 0.00 in0.0 mm 0.00 in0.0 mm 0.01 in0.3 mm
01:15 PM 43.3°F6.3°C 40.9°F4.9°C 91% 4.0 mph E6.4 kmh E 4.0 mph6.4 kmh 30.11 in1019.6 mb 0.00 in0.0 mm 0.00 in0.0 mm 0.01 in0.3 mm
01:30 PM 43.4°F6.3°C 41.0°F5.0°C 91% 1.0 mph NW1.6 kmh NW 2.0 mph3.2 kmh 30.10 in1019.3 mb 0.00 in0.0 mm 0.00 in0.0 mm 0.01 in0.3 mm
01:45 PM 43.5°F6.4°C 41.1°F5.1°C 91% 1.0 mph NNE1.6 kmh NNE 4.0 mph6.4 kmh 30.09 in1019.0 mb 0.00 in0.0 mm 0.00 in0.0 mm 0.01 in0.3 mm
02:00 PM 43.5°F6.4°C 40.8°F4.9°C 90% 2.0 mph NNE3.2 kmh NNE 3.0 mph4.8 kmh 30.09 in1019.0 mb 0.00 in0.0 mm 0.00 in0.0 mm 0.01 in0.3 mm
02:15 PM 43.5°F6.4°C 41.1°F5.1°C 91% 2.0 mph NE3.2 kmh NE 2.0 mph3.2 kmh 30.08 in1018.6 mb 0.00 in0.0 mm 0.00 in0.0 mm 0.01 in0.3 mm
02:30 PM 43.6°F6.4°C 41.2°F5.1°C 91% Calm Calm 2.0 mph3.2 kmh 30.07 in1018.3 mb 0.00 in0.0 mm 0.00 in0.0 mm 0.01 in0.3 mm
02:45 PM 43.6°F6.4°C 40.9°F4.9°C 90% 1.0 mph N1.6 kmh N 4.0 mph6.4 kmh 30.08 in1018.6 mb 0.00 in0.0 mm 0.00 in0.0 mm 0.01 in0.3 mm
03:00 PM 43.6°F6.4°C 41.2°F5.1°C 91% 2.0 mph NNE3.2 kmh NNE 4.0 mph6.4 kmh 30.07 in1018.3 mb 0.00 in0.0 mm 0.00 in0.0 mm 0.01 in0.3 mm
03:15 PM 43.4°F6.3°C 41.0°F5.0°C 91% 2.0 mph NNE3.2 kmh NNE 4.0 mph6.4 kmh 30.07 in1018.3 mb 0.00 in0.0 mm 0.00 in0.0 mm 0.01 in0.3 mm
03:30 PM 43.6°F6.4°C 41.2°F5.1°C 91% 2.0 mph N3.2 kmh N 3.0 mph4.8 kmh 30.06 in1017.9 mb 0.00 in0.0 mm 0.00 in0.0 mm 0.01 in0.3 mm
03:45 PM 43.4°F6.3°C 41.0°F5.0°C 91% 3.0 mph NE4.8 kmh NE 5.1 mph8.2 kmh 30.07 in1018.3 mb 0.00 in0.0 mm 0.00 in0.0 mm 0.01 in0.3 mm
04:00 PM 43.4°F6.3°C 41.0°F5.0°C 91% 2.0 mph NNE3.2 kmh NNE 2.0 mph3.2 kmh 30.08 in1018.6 mb 0.00 in0.0 mm 0.00 in0.0 mm 0.01 in0.3 mm
04:15 PM 43.4°F6.3°C 41.0°F5.0°C 91% 3.0 mph E4.8 kmh E 3.0 mph4.8 kmh 30.07 in1018.3 mb 0.00 in0.0 mm 0.00 in0.0 mm 0.01 in0.3 mm
04:30 PM 43.2°F6.2°C 41.1°F5.1°C 92% 5.0 mph ENE8.0 kmh ENE 7.1 mph11.4 kmh 30.07 in1018.3 mb 0.00 in0.0 mm 0.00 in0.0 mm 0.01 in0.3 mm
04:45 PM 43.1°F6.2°C 41.0°F5.0°C 92% 4.0 mph ENE6.4 kmh ENE 4.0 mph6.4 kmh 30.06 in1017.9 mb 0.00 in0.0 mm 0.00 in0.0 mm 0.01 in0.3 mm
05:00 PM 43.0°F6.1°C 41.1°F5.1°C 93% 4.0 mph E6.4 kmh E 5.1 mph8.2 kmh 30.06 in1017.9 mb 0.00 in0.0 mm 0.00 in0.0 mm 0.01 in0.3 mm
05:15 PM 42.8°F6.0°C 40.9°F4.9°C 93% 5.0 mph NE8.0 kmh NE 7.1 mph11.4 kmh 30.05 in1017.6 mb 0.00 in0.0 mm 0.00 in0.0 mm 0.01 in0.3 mm
05:30 PM 42.8°F6.0°C 41.2°F5.1°C 94% 4.0 mph ESE6.4 kmh ESE 6.1 mph9.8 kmh 30.06 in1017.9 mb 0.00 in0.0 mm 0.00 in0.0 mm 0.01 in0.3 mm
05:45 PM 42.8°F6.0°C 41.2°F5.1°C 94% 2.0 mph E3.2 kmh E 7.1 mph11.4 kmh 30.05 in1017.6 mb 0.00 in0.0 mm 0.00 in0.0 mm 0.01 in0.3 mm
06:00 PM 42.6°F5.9°C 41.3°F5.2°C 95% 3.0 mph E4.8 kmh E 6.1 mph9.8 kmh 30.05 in1017.6 mb 0.00 in0.0 mm 0.00 in0.0 mm 0.01 in0.3 mm
06:15 PM 42.6°F5.9°C 41.3°F5.2°C 95% 2.0 mph ENE3.2 kmh ENE 4.0 mph6.4 kmh 30.05 in1017.6 mb 0.00 in0.0 mm 0.00 in0.0 mm 0.01 in0.3 mm
06:30 PM 42.6°F5.9°C 41.3°F5.2°C 95% 4.0 mph ESE6.4 kmh ESE 6.1 mph9.8 kmh 30.04 in1017.3 mb 0.00 in0.0 mm 0.00 in0.0 mm 0.01 in0.3 mm
06:45 PM 42.5°F5.8°C 41.5°F5.3°C 96% 6.0 mph ESE9.7 kmh ESE 6.1 mph9.8 kmh 30.03 in1016.9 mb 0.00 in0.0 mm 0.00 in0.0 mm 0.01 in0.3 mm
07:00 PM 42.6°F5.9°C 41.6°F5.3°C 96% 3.0 mph SE4.8 kmh SE 3.0 mph4.8 kmh 30.03 in1016.9 mb 0.00 in0.0 mm 0.00 in0.0 mm 0.01 in0.3 mm
07:15 PM 42.7°F5.9°C 41.7°F5.4°C 96% 1.0 mph ESE1.6 kmh ESE 2.0 mph3.2 kmh 30.04 in1017.3 mb 0.00 in0.0 mm 0.00 in0.0 mm 0.01 in0.3 mm
07:30 PM 42.9°F6.1°C 41.9°F5.5°C 96% 1.0 mph E1.6 kmh E 3.0 mph4.8 kmh 30.03 in1016.9 mb 0.00 in0.0 mm 0.00 in0.0 mm 0.01 in0.3 mm
07:45 PM 43.0°F6.1°C 42.2°F5.7°C 97% Calm Calm 1.0 mph1.6 kmh 30.03 in1016.9 mb 0.00 in0.0 mm 0.00 in0.0 mm 0.01 in0.3 mm
08:00 PM 43.0°F6.1°C 42.2°F5.7°C 97% 1.0 mph E1.6 kmh E 4.0 mph6.4 kmh 30.02 in1016.6 mb 0.00 in0.0 mm 0.00 in0.0 mm 0.01 in0.3 mm
08:15 PM 43.2°F6.2°C 42.4°F5.8°C 97% 2.0 mph E3.2 kmh E 4.0 mph6.4 kmh 30.01 in1016.3 mb 0.01 in0.3 mm 0.04 in1.0 mm 0.02 in0.5 mm
08:30 PM 43.3°F6.3°C 42.5°F5.8°C 97% Calm Calm 2.0 mph3.2 kmh 30.00 in1015.9 mb 0.01 in0.3 mm 0.00 in0.0 mm 0.02 in0.5 mm
08:45 PM 43.5°F6.4°C 42.7°F5.9°C 97% 1.0 mph E1.6 kmh E 2.0 mph3.2 kmh 30.00 in1015.9 mb 0.01 in0.3 mm 0.00 in0.0 mm 0.02 in0.5 mm
09:00 PM 43.6°F6.4°C 42.8°F6.0°C 97% Calm Calm 2.0 mph3.2 kmh 29.99 in1015.6 mb 0.02 in0.5 mm 0.01 in0.3 mm 0.03 in0.8 mm
09:30 PM 43.7°F6.5°C 42.9°F6.1°C 97% 2.0 mph N3.2 kmh N 2.0 mph3.2 kmh 29.97 in1014.9 mb 0.04 in1.0 mm 0.04 in1.0 mm 0.05 in1.3 mm
10:00 PM 43.9°F6.6°C 43.1°F6.2°C 97% 2.0 mph ENE3.2 kmh ENE 2.0 mph3.2 kmh 29.95 in1014.2 mb 0.03 in0.8 mm 0.00 in0.0 mm 0.05 in1.3 mm
10:30 PM 44.2°F6.8°C 43.4°F6.3°C 97% 1.0 mph NNE1.6 kmh NNE 1.0 mph1.6 kmh 29.94 in1013.9 mb 0.05 in1.3 mm 0.04 in1.0 mm 0.07 in1.8 mm
11:00 PM 44.2°F6.8°C 43.4°F6.3°C 97% Calm Calm 1.0 mph1.6 kmh 29.93 in1013.5 mb 0.06 in1.5 mm 0.02 in0.5 mm 0.08 in2.0 mm
11:30 PM 44.4°F6.9°C 43.6°F6.4°C 97% Calm Calm -- 29.89 in1012.2 mb 0.07 in1.8 mm 0.02 in0.5 mm 0.09 in2.3 mm